createdAt,value
2022-08-05T00:00:16.511Z,3.83
2022-08-05T00:02:51.128Z,3.47
2022-08-05T00:06:01.666Z,3.90
2022-08-05T00:08:30.839Z,3.72
2022-08-05T00:11:00.969Z,3.63
2022-08-05T00:13:39.538Z,3.78
2022-08-05T00:16:10.912Z,3.80
2022-08-05T00:18:40.532Z,3.92
2022-08-05T00:21:09.566Z,3.60
2022-08-05T00:23:45.731Z,3.40
2022-08-05T00:26:15.302Z,3.92
2022-08-05T00:28:44.361Z,3.42
2022-08-05T00:31:13.583Z,3.75
2022-08-05T00:34:54.152Z,4.00
2022-08-05T00:37:10.602Z,3.80
2022-08-05T00:39:15.328Z,3.85
2022-08-05T00:41:52.004Z,3.40
2022-08-05T00:44:30.892Z,3.90
2022-08-05T00:47:02.129Z,3.60
2022-08-05T00:49:32.646Z,3.83
2022-08-05T00:52:12.029Z,4.28
2022-08-05T00:54:39.317Z,4.10
2022-08-05T00:57:06.531Z,3.67
2022-08-05T00:59:34.512Z,4.20
2022-08-05T01:02:11.468Z,4.28
2022-08-05T01:04:42.103Z,4.25
2022-08-05T01:07:13.669Z,3.55
2022-08-05T01:09:41.897Z,3.70
2022-08-05T01:12:18.881Z,3.88
2022-08-05T01:14:59.584Z,3.60
2022-08-05T01:17:44.035Z,3.80
2022-08-05T01:20:27.068Z,4.00
2022-08-05T01:23:23.744Z,3.80
2022-08-05T01:26:16.429Z,4.20
2022-08-05T01:29:05.076Z,4.07
2022-08-05T01:31:44.738Z,4.20
2022-08-05T01:34:26.675Z,3.80
2022-08-05T01:37:06.164Z,4.10
2022-08-05T01:39:46.685Z,3.80
2022-08-05T01:42:16.317Z,4.20
2022-08-05T01:44:44.317Z,4.18
2022-08-05T01:47:21.265Z,4.15
2022-08-05T01:50:01.652Z,4.07
2022-08-05T01:52:30.479Z,3.95
2022-08-05T01:55:00.491Z,3.88
2022-08-05T01:58:09.946Z,4.18
2022-08-05T02:00:17.177Z,3.97
2022-08-05T02:02:54.731Z,3.63
2022-08-05T02:05:25.159Z,4.00
2022-08-05T02:08:01.275Z,4.10
2022-08-05T02:10:31.491Z,3.97
2022-08-05T02:13:16.630Z,4.00
2022-08-05T02:15:50.261Z,4.47
2022-08-05T02:18:35.229Z,4.25
2022-08-05T02:23:43.890Z,3.65
2022-08-05T02:26:15.800Z,4.50
2022-08-05T02:28:45.764Z,4.22
2022-08-05T02:31:21.038Z,4.28
2022-08-05T02:33:58.071Z,4.00
2022-08-05T02:36:27.532Z,4.20
2022-08-05T02:38:58.913Z,3.88
2022-08-05T02:41:28.577Z,4.10
2022-08-05T02:44:11.984Z,3.90
2022-08-05T02:46:53.536Z,4.00
2022-08-05T02:49:35.701Z,4.10
2022-08-05T02:52:07.879Z,3.67
2022-08-05T02:54:37.147Z,4.38
2022-08-05T02:57:10.111Z,4.38
2022-08-05T02:59:54.574Z,3.90
2022-08-05T03:02:24.655Z,4.30
2022-08-05T03:04:55.243Z,3.72
2022-08-05T03:07:40.473Z,4.45
2022-08-05T03:10:10.158Z,3.78
2022-08-05T03:12:38.634Z,3.97
2022-08-05T03:15:09.219Z,4.00
2022-08-05T03:17:41.446Z,4.25
2022-08-05T03:20:10.341Z,4.03
2022-08-05T03:22:37.770Z,4.03
2022-08-05T03:25:32.742Z,4.33
2022-08-05T03:28:00.356Z,3.78
2022-08-05T03:30:33.642Z,3.88
2022-08-05T03:33:02.103Z,3.93
2022-08-05T03:35:29.758Z,3.80
2022-08-05T03:38:01.233Z,3.92
2022-08-05T03:40:31.988Z,4.00
2022-08-05T03:43:15.884Z,4.25
2022-08-05T03:45:57.416Z,3.90
2022-08-05T03:48:27.593Z,4.03
2022-08-05T03:52:35.090Z,3.85
2022-08-05T03:55:50.145Z,4.50
2022-08-05T03:57:00.042Z,4.07
2022-08-05T03:59:54.390Z,3.63
2022-08-05T04:02:37.670Z,4.22
2022-08-05T04:05:08.354Z,3.90
2022-08-05T04:07:57.529Z,3.83
2022-08-05T04:10:28.413Z,4.03
2022-08-05T04:12:59.536Z,3.90
2022-08-05T04:15:27.982Z,4.18
2022-08-05T04:18:06.884Z,3.40
2022-08-05T04:20:34.483Z,4.28
2022-08-05T04:23:02.104Z,4.03
2022-08-05T04:25:56.737Z,3.95
2022-08-05T04:28:17.197Z,3.88
2022-08-05T04:30:45.153Z,3.90
2022-08-05T04:33:12.838Z,4.10
2022-08-05T04:36:15.667Z,3.95
2022-08-05T04:38:39.131Z,3.97
2022-08-05T04:41:09.318Z,3.97
2022-08-05T04:43:38.048Z,4.30
2022-08-05T04:46:13.944Z,3.92
2022-08-05T04:48:55.266Z,3.60
2022-08-05T04:51:26.041Z,3.80
2022-08-05T04:53:58.513Z,3.53
2022-08-05T04:56:34.406Z,3.70
2022-08-05T04:59:21.824Z,3.28
2022-08-05T05:02:07.569Z,3.20
2022-08-05T05:04:47.794Z,3.58
2022-08-05T05:07:17.660Z,3.05
2022-08-05T05:09:45.480Z,3.30
2022-08-05T05:12:12.719Z,3.53
2022-08-05T05:14:49.159Z,2.92
2022-08-05T05:17:23.412Z,3.50
2022-08-05T05:19:55.223Z,3.42
2022-08-05T05:22:26.356Z,3.53
2022-08-05T05:24:58.723Z,3.35
2022-08-05T05:27:41.446Z,3.13
2022-08-05T05:30:15.642Z,3.20
2022-08-05T05:33:00.956Z,3.40
2022-08-05T05:35:34.233Z,3.10
2022-08-05T05:40:48.045Z,3.30
2022-08-05T05:43:54.828Z,3.75
2022-08-05T05:46:17.483Z,2.60
2022-08-05T05:48:48.138Z,3.10
2022-08-05T05:51:22.403Z,3.38
2022-08-05T05:53:57.311Z,3.35
2022-08-05T05:56:33.396Z,3.28
2022-08-05T05:59:06.517Z,3.13
2022-08-05T06:01:38.045Z,2.75
2022-08-05T06:04:07.536Z,3.20
2022-08-05T06:06:35.635Z,3.03
2022-08-05T06:09:06.081Z,2.95
2022-08-05T06:11:34.955Z,2.90
2022-08-05T06:14:06.744Z,3.10
2022-08-05T06:16:37.223Z,2.90
2022-08-05T06:19:07.066Z,3.08
2022-08-05T06:21:37.577Z,3.30
2022-08-05T06:24:11.207Z,2.90
2022-08-05T06:26:51.290Z,2.72
2022-08-05T06:29:44.291Z,2.70
2022-08-05T06:32:25.214Z,2.70
2022-08-05T06:34:58.232Z,2.83
2022-08-05T06:37:58.011Z,2.60
2022-08-05T06:40:18.570Z,2.97
2022-08-05T06:42:52.148Z,2.70
2022-08-05T06:45:44.925Z,2.78
2022-08-05T06:48:44.194Z,3.15
2022-08-05T06:50:56.319Z,2.88
2022-08-05T06:53:28.591Z,2.80
2022-08-05T06:56:00.443Z,2.63
2022-08-05T06:58:34.849Z,2.75
2022-08-05T07:01:05.509Z,2.83
2022-08-05T07:03:33.525Z,3.10
2022-08-05T07:06:05.946Z,2.67
2022-08-05T07:08:47.857Z,2.42
2022-08-05T07:11:22.603Z,3.00
2022-08-05T07:14:15.330Z,2.90
2022-08-05T07:20:23.131Z,2.75
2022-08-05T07:22:27.829Z,2.88
2022-08-05T07:24:55.305Z,3.15
2022-08-05T07:27:27.715Z,2.88
2022-08-05T07:30:24.008Z,2.95
2022-08-05T07:32:57.839Z,2.70
2022-08-05T07:36:05.227Z,2.70
2022-08-05T07:38:32.969Z,3.10
2022-08-05T07:41:04.452Z,3.13
2022-08-05T07:43:46.911Z,2.78
2022-08-05T07:46:24.222Z,3.45
2022-08-05T07:49:04.380Z,3.08
2022-08-05T07:51:36.360Z,2.95
2022-08-05T07:54:06.331Z,3.17
2022-08-05T07:57:02.704Z,4.13
2022-08-05T07:59:31.108Z,4.07
2022-08-05T08:02:16.253Z,3.03
2022-08-05T08:04:46.200Z,2.90
2022-08-05T08:07:13.879Z,3.22
2022-08-05T08:09:42.694Z,3.88
2022-08-05T08:12:20.242Z,3.53
2022-08-05T08:14:57.329Z,3.42
2022-08-05T08:17:30.717Z,3.30
2022-08-05T08:20:23.059Z,3.38
2022-08-05T08:22:51.630Z,3.15
2022-08-05T08:25:26.789Z,3.70
2022-08-05T08:28:06.852Z,3.08
2022-08-05T08:30:47.356Z,3.65
2022-08-05T08:33:16.780Z,3.63
2022-08-05T08:35:53.913Z,4.00
2022-08-05T08:38:35.282Z,3.97
2022-08-05T08:41:08.358Z,4.05
2022-08-05T08:45:19.091Z,3.63
2022-08-05T08:46:24.342Z,3.97
2022-08-05T08:49:07.764Z,3.75
2022-08-05T08:52:03.573Z,3.72
2022-08-05T08:54:27.334Z,3.70
2022-08-05T08:56:56.426Z,3.92
2022-08-05T08:59:27.655Z,4.10
2022-08-05T09:01:56.993Z,3.97
2022-08-05T09:04:30.430Z,3.28
2022-08-05T09:06:58.715Z,4.10
2022-08-05T09:09:34.723Z,4.00
2022-08-05T09:12:13.559Z,3.50
2022-08-05T09:14:56.575Z,3.80
2022-08-05T09:17:40.776Z,5.70
2022-08-05T09:20:11.315Z,3.70
2022-08-05T09:23:07.876Z,3.88
2022-08-05T09:26:01.136Z,4.65
2022-08-05T09:28:31.991Z,4.10
2022-08-05T09:31:18.303Z,3.47
2022-08-05T09:33:58.642Z,3.67
2022-08-05T09:36:56.143Z,3.53
2022-08-05T09:39:41.200Z,3.05
2022-08-05T09:42:20.261Z,3.60
2022-08-05T09:44:52.936Z,3.28
2022-08-05T09:47:28.604Z,3.38
2022-08-05T09:50:04.076Z,3.40
2022-08-05T09:52:32.225Z,3.63
2022-08-05T09:55:58.313Z,3.72
2022-08-05T09:57:54.446Z,3.43
2022-08-05T10:00:26.389Z,4.95
2022-08-05T10:02:54.728Z,3.40
2022-08-05T10:05:26.676Z,3.20
2022-08-05T10:08:36.009Z,3.85
2022-08-05T10:10:48.283Z,3.33
2022-08-05T10:13:47.670Z,3.35
2022-08-05T10:16:52.344Z,3.30
2022-08-05T10:19:23.646Z,3.20
2022-08-05T10:21:59.309Z,2.83
2022-08-05T10:24:27.111Z,3.80
2022-08-05T10:27:00.547Z,3.05
2022-08-05T10:30:41.333Z,17.15
2022-08-05T10:33:01.486Z,3.10
2022-08-05T10:35:07.159Z,3.17
2022-08-05T10:37:37.544Z,3.15
2022-08-05T10:41:04.659Z,3.13
2022-08-05T10:43:52.807Z,3.00
2022-08-05T10:46:23.951Z,3.33
2022-08-05T10:49:05.075Z,2.80
2022-08-05T10:51:57.715Z,3.00
2022-08-05T10:55:07.901Z,2.80
2022-08-05T10:57:39.417Z,2.88
2022-08-05T11:03:25.201Z,2.95
2022-08-05T11:06:08.600Z,2.72
2022-08-05T11:09:32.211Z,2.80
2022-08-05T11:12:38.172Z,2.77
2022-08-05T11:16:00.210Z,3.15
2022-08-05T11:18:29.723Z,2.70
2022-08-05T11:20:57.626Z,2.47
2022-08-05T11:23:33.703Z,2.42
2022-08-05T11:26:17.130Z,3.08
2022-08-05T11:28:56.714Z,2.53
2022-08-05T11:31:58.419Z,2.67
2022-08-05T11:34:21.191Z,2.55
2022-08-05T11:36:52.911Z,3.50
2022-08-05T11:39:48.744Z,2.72
2022-08-05T11:42:18.290Z,2.60
2022-08-05T11:44:53.717Z,2.35
2022-08-05T11:47:48.309Z,2.22
2022-08-05T11:50:10.423Z,2.80
2022-08-05T11:52:43.992Z,2.47
2022-08-05T11:55:13.284Z,3.30
2022-08-05T11:58:10.480Z,2.53
2022-08-05T12:00:32.163Z,2.67
2022-08-05T12:03:16.659Z,2.60
2022-08-05T12:06:05.774Z,2.83
2022-08-05T12:08:49.936Z,2.47
2022-08-05T12:11:23.392Z,2.30
2022-08-05T12:14:04.069Z,2.40
2022-08-05T12:16:38.885Z,2.58
2022-08-05T12:21:41.711Z,2.30
2022-08-05T12:24:09.878Z,2.50
2022-08-05T12:26:44.047Z,2.97
2022-08-05T12:29:22.473Z,2.33
2022-08-05T12:31:54.739Z,2.75
2022-08-05T12:34:32.031Z,2.42
2022-08-05T12:37:00.898Z,3.10
2022-08-05T12:39:37.364Z,2.65
2022-08-05T12:42:14.971Z,2.70
2022-08-05T12:44:44.534Z,2.35
2022-08-05T12:47:13.358Z,2.40
2022-08-05T12:50:03.140Z,2.40
2022-08-05T12:52:42.233Z,2.42
2022-08-05T12:55:25.170Z,2.63
2022-08-05T12:58:51.272Z,2.33
2022-08-05T13:02:01.311Z,2.30
2022-08-05T13:03:32.198Z,2.60
2022-08-05T13:06:01.512Z,2.60
2022-08-05T13:08:32.968Z,2.47
2022-08-05T13:11:01.984Z,2.53
2022-08-05T13:14:05.170Z,2.50
2022-08-05T13:16:19.458Z,2.42
2022-08-05T13:18:57.670Z,2.30
2022-08-05T13:21:28.187Z,3.22
2022-08-05T13:24:05.946Z,2.67
2022-08-05T13:26:36.164Z,2.50
2022-08-05T13:29:05.034Z,2.97
2022-08-05T13:31:33.781Z,2.20
2022-08-05T13:34:25.982Z,2.50
2022-08-05T13:36:54.092Z,2.53
2022-08-05T13:40:13.590Z,2.70
2022-08-05T13:42:14.619Z,2.40
2022-08-05T13:44:46.259Z,2.25
2022-08-05T13:47:35.817Z,2.35
2022-08-05T13:50:04.239Z,2.33
2022-08-05T13:52:35.352Z,2.42
2022-08-05T13:55:07.320Z,2.08
2022-08-05T13:57:51.268Z,2.35
2022-08-05T14:00:27.205Z,2.67
2022-08-05T14:02:56.696Z,2.60
2022-08-05T14:05:29.541Z,2.50
2022-08-05T14:08:20.819Z,2.30
2022-08-05T14:11:03.104Z,1.85
2022-08-05T14:13:42.370Z,2.70
2022-08-05T14:16:11.300Z,2.20
2022-08-05T14:18:44.122Z,2.67
2022-08-05T14:22:08.511Z,2.50
2022-08-05T14:23:58.839Z,2.20
2022-08-05T14:26:37.067Z,2.80
2022-08-05T14:29:16.361Z,2.45
2022-08-05T14:32:03.520Z,2.75
2022-08-05T14:34:35.186Z,2.10
2022-08-05T14:37:04.273Z,2.40
2022-08-05T14:39:49.648Z,2.53
2022-08-05T14:42:21.761Z,2.30
2022-08-05T14:44:49.497Z,2.25
2022-08-05T14:47:17.307Z,2.30
2022-08-05T14:50:18.359Z,2.60
2022-08-05T14:52:57.707Z,2.92
2022-08-05T14:55:28.755Z,2.15
2022-08-05T14:58:10.802Z,2.03
2022-08-05T15:00:58.430Z,2.10
2022-08-05T15:03:34.124Z,2.40
2022-08-05T15:06:15.092Z,2.47
2022-08-05T15:08:59.489Z,2.90
2022-08-05T15:11:53.272Z,2.55
2022-08-05T15:14:33.243Z,2.60
2022-08-05T15:17:04.290Z,2.60
2022-08-05T15:19:32.314Z,2.47
2022-08-05T15:22:00.985Z,2.80
2022-08-05T15:24:29.022Z,3.20
2022-08-05T15:26:57.155Z,2.40
2022-08-05T15:29:30.210Z,2.33
2022-08-05T15:32:03.047Z,2.70
2022-08-05T15:34:32.227Z,2.50
2022-08-05T15:37:06.233Z,2.30
2022-08-05T15:41:02.956Z,2.60
2022-08-05T15:42:49.996Z,2.67
2022-08-05T15:45:11.328Z,2.47
2022-08-05T15:47:39.127Z,2.60
2022-08-05T15:50:07.398Z,2.15
2022-08-05T15:52:53.586Z,2.60
2022-08-05T15:55:25.062Z,2.97
2022-08-05T15:58:16.777Z,2.47
2022-08-05T16:00:57.009Z,2.58
2022-08-05T16:03:32.750Z,2.95
2022-08-05T16:06:01.238Z,2.60
2022-08-05T16:08:30.773Z,2.60
2022-08-05T16:10:58.739Z,3.10
2022-08-05T16:13:34.372Z,2.70
2022-08-05T16:16:05.582Z,2.88
2022-08-05T16:18:33.063Z,2.28
2022-08-05T16:21:04.234Z,2.63
2022-08-05T16:23:53.277Z,2.30
2022-08-05T16:26:26.204Z,3.00
2022-08-05T16:28:54.624Z,3.05
2022-08-05T16:31:22.160Z,3.00
2022-08-05T16:33:49.728Z,2.85
2022-08-05T16:36:20.145Z,2.67
2022-08-05T16:38:54.863Z,2.67
2022-08-05T16:42:14.087Z,2.40
2022-08-05T16:44:11.651Z,2.67
2022-08-05T16:46:41.080Z,2.92
2022-08-05T16:49:09.172Z,2.30
2022-08-05T16:51:50.233Z,2.25
2022-08-05T16:54:27.237Z,2.55
2022-08-05T16:56:57.644Z,2.38
2022-08-05T16:59:25.303Z,2.65
2022-08-05T17:01:56.206Z,5.25
2022-08-05T17:04:27.753Z,2.83
2022-08-05T17:06:59.946Z,2.63
2022-08-05T17:09:29.454Z,2.60
2022-08-05T17:11:59.860Z,2.90
2022-08-05T17:14:36.919Z,3.03
2022-08-05T17:17:14.531Z,2.60
2022-08-05T17:19:45.377Z,2.72
2022-08-05T17:22:17.911Z,2.33
2022-08-05T17:24:57.662Z,2.50
2022-08-05T17:27:33.692Z,2.80
2022-08-05T17:30:03.550Z,2.80
2022-08-05T17:32:33.848Z,2.72
2022-08-05T17:35:02.507Z,2.63
2022-08-05T17:37:40.280Z,2.60
2022-08-05T17:40:12.464Z,3.10
2022-08-05T17:42:43.196Z,2.80
2022-08-05T17:45:24.680Z,2.88
2022-08-05T17:47:55.349Z,2.90
2022-08-05T17:50:30.489Z,2.80
2022-08-05T17:52:59.400Z,2.78
2022-08-05T17:55:37.618Z,3.00
2022-08-05T17:58:09.923Z,2.70
2022-08-05T18:00:44.278Z,2.97
2022-08-05T18:06:06.138Z,2.70
2022-08-05T18:08:45.003Z,2.72
2022-08-05T18:11:24.793Z,2.80
2022-08-05T18:14:01.285Z,2.78
2022-08-05T18:16:32.405Z,3.25
2022-08-05T18:18:59.682Z,3.08
2022-08-05T18:21:28.159Z,3.28
2022-08-05T18:24:14.459Z,2.80
2022-08-05T18:26:42.052Z,2.92
2022-08-05T18:29:11.191Z,3.20
2022-08-05T18:31:38.576Z,2.95
2022-08-05T18:34:12.025Z,2.92
2022-08-05T18:36:41.226Z,2.78
2022-08-05T18:39:22.341Z,2.85
2022-08-05T18:42:06.278Z,3.03
2022-08-05T18:44:55.473Z,2.90
2022-08-05T18:47:22.881Z,3.00
2022-08-05T18:50:15.463Z,3.10
2022-08-05T18:52:51.262Z,3.33
2022-08-05T18:55:19.127Z,3.13
2022-08-05T18:57:53.368Z,3.38
2022-08-05T19:00:27.062Z,3.58
2022-08-05T19:02:57.770Z,3.30
2022-08-05T19:06:11.320Z,3.22
2022-08-05T19:08:19.778Z,4.07
2022-08-05T19:10:49.950Z,3.92
2022-08-05T19:13:17.371Z,3.78
2022-08-05T19:15:59.694Z,3.50
2022-08-05T19:18:31.306Z,3.72
2022-08-05T19:20:59.593Z,3.55
2022-08-05T19:24:07.615Z,3.35
2022-08-05T19:26:16.450Z,4.13
2022-08-05T19:28:43.961Z,3.65
2022-08-05T19:31:13.506Z,5.50
2022-08-05T19:33:48.261Z,5.60
2022-08-05T19:36:26.364Z,7.30
2022-08-05T19:38:55.122Z,7.00
2022-08-05T19:41:58.557Z,5.57
2022-08-05T19:44:15.435Z,5.20
2022-08-05T19:46:43.795Z,4.80
2022-08-05T19:49:12.584Z,4.90
2022-08-05T19:52:05.820Z,4.78
2022-08-05T19:54:32.668Z,5.15
2022-08-05T19:57:02.424Z,4.20
2022-08-05T20:00:00.823Z,4.63
2022-08-05T20:02:20.907Z,4.68
2022-08-05T20:04:48.362Z,4.78
2022-08-05T20:07:16.324Z,4.60
2022-08-05T20:10:13.331Z,4.55
2022-08-05T20:12:46.116Z,5.25
2022-08-05T20:15:48.231Z,5.38
2022-08-05T20:18:10.222Z,5.85
2022-08-05T20:20:55.129Z,5.15
2022-08-05T20:23:39.603Z,6.65
2022-08-05T20:26:16.424Z,5.90
2022-08-05T20:28:49.693Z,6.32
2022-08-05T20:31:21.459Z,7.10
2022-08-05T20:33:50.417Z,6.45
2022-08-05T20:36:19.490Z,6.72
2022-08-05T20:38:53.343Z,6.60
2022-08-05T20:41:27.480Z,6.30
2022-08-05T20:44:17.764Z,5.55
2022-08-05T20:46:47.917Z,6.45
2022-08-05T20:49:24.180Z,7.10
2022-08-05T20:51:54.136Z,7.30
2022-08-05T20:54:22.900Z,7.57
2022-08-05T20:56:52.958Z,6.53
2022-08-05T20:59:26.394Z,5.68
2022-08-05T21:01:57.914Z,5.20
2022-08-05T21:04:26.941Z,5.00
2022-08-05T21:06:54.934Z,5.63
2022-08-05T21:09:23.142Z,5.70
2022-08-05T21:12:09.373Z,4.72
2022-08-05T21:14:38.846Z,5.00
2022-08-05T21:17:06.501Z,4.80
2022-08-05T21:19:47.288Z,5.28
2022-08-05T21:22:21.637Z,5.15
2022-08-05T21:24:51.952Z,5.57
2022-08-05T21:27:25.027Z,4.65
2022-08-05T21:29:53.968Z,5.10
2022-08-05T21:32:27.076Z,5.22
2022-08-05T21:35:08.749Z,5.45
2022-08-05T21:37:53.096Z,5.63
2022-08-05T21:40:23.104Z,4.85
2022-08-05T21:42:52.009Z,5.35
2022-08-05T21:45:26.461Z,4.97
2022-08-05T21:48:08.886Z,5.40
2022-08-05T21:50:36.768Z,5.68
2022-08-05T21:53:17.475Z,5.30
2022-08-05T21:56:04.813Z,5.90
2022-08-05T21:58:32.744Z,5.47
2022-08-05T22:01:00.530Z,5.13
2022-08-05T22:03:48.560Z,4.88
2022-08-05T22:06:22.808Z,5.60
2022-08-05T22:11:33.166Z,5.20
2022-08-05T22:14:06.569Z,5.82
2022-08-05T22:16:52.563Z,6.88
2022-08-05T22:20:01.116Z,7.25
2022-08-05T22:22:07.870Z,6.40
2022-08-05T22:24:55.961Z,7.28
2022-08-05T22:28:08.391Z,6.60
2022-08-05T22:30:56.213Z,6.65
2022-08-05T22:33:57.456Z,6.38
2022-08-05T22:36:14.678Z,6.43
2022-08-05T22:38:48.674Z,6.13
2022-08-05T22:42:04.223Z,6.90
2022-08-05T22:44:05.696Z,5.72
2022-08-05T22:46:32.932Z,5.85
2022-08-05T22:49:00.271Z,6.15
2022-08-05T22:52:03.442Z,5.45
2022-08-05T22:54:14.702Z,5.65
2022-08-05T22:56:41.963Z,5.75
2022-08-05T22:59:43.895Z,5.97
2022-08-05T23:02:06.112Z,6.00
2022-08-05T23:04:35.475Z,5.70
2022-08-05T23:07:03.281Z,5.97
2022-08-05T23:09:57.436Z,5.38
2022-08-05T23:12:18.133Z,6.05
2022-08-05T23:14:45.853Z,5.80
2022-08-05T23:17:34.850Z,5.93
2022-08-05T23:20:16.358Z,5.75
2022-08-05T23:22:48.323Z,5.55
2022-08-05T23:25:53.412Z,5.32
2022-08-05T23:28:06.870Z,4.90
2022-08-05T23:30:40.647Z,4.40
2022-08-05T23:33:16.388Z,4.00
2022-08-05T23:35:55.988Z,3.75
2022-08-05T23:38:24.498Z,4.13
2022-08-05T23:40:52.708Z,4.00
2022-08-05T23:43:24.921Z,3.80
2022-08-05T23:46:21.291Z,4.35
2022-08-05T23:49:00.840Z,4.25
2022-08-05T23:51:55.024Z,4.30
2022-08-05T23:54:26.760Z,4.35
2022-08-05T23:57:03.766Z,4.32
